EmailTwitter


Surface observations / United Kingdom / EGLL (03772)

Regions: Quebec | Canada | USA | Europe | France | UK | Elsewhere
Station
Display
Info & Location for EGLL (03772) | Help decoding METAR

Weather Conditions observed on 2020/07/15 at 11:50 UTC at LONDON/HEATHROW, UK (EGLL)

Sky conditions: partly cloudy.

Temperature: 18.0 Celsius.

Dewpoint: 11.0 Celsius.

Relative Humidity: 64%

Winds: West at 19 km/h or 10 knots.

Mean Sea level Pressure: 101.60 kilopascals.

Horizontal visibility: 6.21 statute miles or 9.94 kilometers.

Height of the Ceiling: 1006 metres ( 3300 feet ).

Coded METAR:

EGLL 151150Z AUTO 26010KT 9999 SCT027 BKN033 BKN041 18/11 Q1016 NOSIG=